Time;durP1;ratioP1;P1;durP2;ratioP2;P2;SDS_P1;SDS_P2;PMS_P1;PMS_P2;Temp;Humidity;BMP_temperature;BMP_pressure;BME280_temperature;BME280_humidity;BME280_pressure;Samples;Min_cycle;Max_cycle;Signal;HPM_P1;HPM_P2
2021/10/01 00:01:30;;;;;;;11.80;6.87;;;;;;;6.83;79.76;98365.05;1714816;81;26032;-86
2021/10/01 00:03:56;;;;;;;11.00;6.70;;;;;;;6.78;79.94;98367.38;1713639;82;26365;-87
2021/10/01 00:06:23;;;;;;;12.15;6.62;;;;;;;6.74;80.13;98357.99;1709113;82;26834;-87
2021/10/01 00:08:50;;;;;;;11.12;6.72;;;;;;;6.73;80.17;98363.02;1711541;81;25300;-88
2021/10/01 00:11:16;;;;;;;13.08;6.95;;;;;;;6.69;80.09;98363.00;1705113;82;25740;-88
2021/10/01 00:13:43;;;;;;;12.98;7.67;;;;;;;6.65;80.18;98362.97;1713459;83;26071;-86
2021/10/01 00:16:10;;;;;;;11.63;7.05;;;;;;;6.69;80.30;98362.16;1718261;83;25722;-87
2021/10/01 00:18:37;;;;;;;12.05;6.72;;;;;;;6.68;80.18;98363.16;1721371;81;27555;-86
2021/10/01 00:21:05;;;;;;;8.75;5.47;;;;;;;6.66;80.08;98367.34;1711479;81;25783;-87
2021/10/01 00:23:32;;;;;;;9.73;5.97;;;;;;;6.64;80.05;98369.34;1715968;81;25681;-86
2021/10/01 00:26:00;;;;;;;10.00;5.60;;;;;;;6.63;79.94;98365.01;1718967;81;25860;-86
2021/10/01 00:28:27;;;;;;;8.85;5.33;;;;;;;6.60;79.83;98366.66;1710639;81;25841;-85
2021/10/01 00:30:53;;;;;;;10.20;4.58;;;;;;;6.56;79.78;98367.98;1724305;81;28375;-86
2021/10/01 00:33:20;;;;;;;5.95;4.22;;;;;;;6.53;79.86;98364.78;1713204;81;25752;-86
2021/10/01 00:35:46;;;;;;;7.50;4.30;;;;;;;6.51;79.88;98364.97;1704397;82;25876;-88
2021/10/01 00:38:14;;;;;;;8.48;4.33;;;;;;;6.52;79.95;98366.62;1696786;82;25872;-86
2021/10/01 00:40:41;;;;;;;9.83;4.90;;;;;;;6.54;79.97;98369.14;1691270;82;25729;-87
2021/10/01 00:43:07;;;;;;;8.70;5.25;;;;;;;6.53;79.98;98371.48;1687108;84;27418;-89
2021/10/01 00:45:36;;;;;;;11.50;5.50;;;;;;;6.52;80.09;98363.94;1718746;81;25840;-86
2021/10/01 00:48:03;;;;;;;10.25;5.05;;;;;;;6.51;80.13;98366.31;1706233;82;25771;-87
2021/10/01 00:50:29;;;;;;;14.33;7.12;;;;;;;6.52;80.18;98361.25;1721797;81;26481;-86
2021/10/01 00:52:58;;;;;;;15.45;7.42;;;;;;;6.54;80.33;98364.62;1757188;79;25652;-86
2021/10/01 00:55:25;;;;;;;14.70;7.45;;;;;;;6.58;80.42;98363.80;1747322;79;28048;-86
2021/10/01 00:57:52;;;;;;;18.10;7.87;;;;;;;6.62;80.54;98360.64;1745247;79;25723;-86
2021/10/01 01:00:26;;;;;;;16.77;8.80;;;;;;;6.63;80.60;98362.33;1750997;79;25821;-87
2021/10/01 01:02:47;;;;;;;21.23;9.48;;;;;;;6.67;80.70;98357.45;1754318;79;26515;-86
2021/10/01 01:05:14;;;;;;;20.70;10.28;;;;;;;6.68;80.79;98352.42;1747046;79;25805;-86
2021/10/01 01:07:51;;;;;;;19.25;9.55;;;;;;;6.70;80.85;98347.23;1750758;79;27389;-87
2021/10/01 01:10:38;;;;;;;18.02;9.25;;;;;;;6.72;80.88;98347.92;1747974;79;25839;-86
2021/10/01 01:13:32;;;;;;;19.80;9.48;;;;;;;6.70;80.91;98345.05;1741570;79;25890;-85
2021/10/01 01:16:07;;;;;;;19.30;8.03;;;;;;;6.71;80.90;98351.60;1750434;79;25716;-88
2021/10/01 01:18:45;;;;;;;18.98;8.45;;;;;;;6.71;80.97;98347.58;1749780;79;25759;-87
2021/10/01 01:21:26;;;;;;;14.65;7.95;;;;;;;6.71;80.99;98346.73;1747706;79;27472;-87
2021/10/01 01:24:48;;;;;;;16.93;7.58;;;;;;;6.69;80.93;98345.55;1750696;79;25753;-88
2021/10/01 01:28:01;;;;;;;16.33;7.47;;;;;;;6.69;80.87;98352.27;1754287;81;25846;-88
2021/10/01 01:30:35;;;;;;;13.98;6.85;;;;;;;6.63;80.73;98348.91;1740239;81;25489;-86
2021/10/01 01:33:03;;;;;;;12.07;7.30;;;;;;;6.57;80.77;98356.75;1751121;79;25782;-89
2021/10/01 01:35:34;;;;;;;20.55;7.87;;;;;;;6.55;80.80;98352.89;1730201;81;27377;-86
2021/10/01 01:38:15;;;;;;;16.70;7.67;;;;;;;6.51;80.66;98351.55;1750678;79;25814;-86
2021/10/01 01:40:45;;;;;;;15.90;8.10;;;;;;;6.45;80.68;98354.87;1756696;80;25308;-85
2021/10/01 01:43:13;;;;;;;20.15;7.78;;;;;;;6.42;80.79;98356.03;1755631;79;25452;-85
2021/10/01 01:45:42;;;;;;;24.25;8.45;;;;;;;6.42;80.82;98350.66;1759639;81;25740;-87
2021/10/01 01:48:10;;;;;;;28.05;7.95;;;;;;;6.42;80.86;98352.51;1754690;79;27023;-86
2021/10/01 01:50:39;;;;;;;20.27;9.50;;;;;;;6.41;80.90;98348.14;1747047;79;25679;-87
2021/10/01 01:53:07;;;;;;;30.70;7.50;;;;;;;6.41;80.97;98349.48;1752357;79;25767;-86
2021/10/01 01:55:34;;;;;;;25.97;6.87;;;;;;;6.40;81.00;98347.83;1755890;79;25860;-89
2021/10/01 01:58:02;;;;;;;16.23;7.17;;;;;;;6.40;81.02;98349.17;1749727;79;25718;-88
2021/10/01 02:00:30;;;;;;;14.65;6.53;;;;;;;6.40;81.06;98345.15;1752960;79;26709;-89
2021/10/01 02:02:58;;;;;;;17.35;6.40;;;;;;;6.35;81.00;98349.65;1745687;79;25738;-86
2021/10/01 02:05:27;;;;;;;19.98;6.58;;;;;;;6.28;81.00;98351.81;1758399;79;25346;-85
2021/10/01 02:07:57;;;;;;;22.32;6.85;;;;;;;6.22;81.06;98355.11;1749703;79;26602;-89
2021/10/01 02:10:24;;;;;;;16.05;6.53;;;;;;;6.19;81.17;98355.43;1742458;79;25881;-87
2021/10/01 02:12:55;;;;;;;14.78;7.67;;;;;;;6.16;81.25;98355.24;1749928;79;27441;-89
2021/10/01 02:15:23;;;;;;;18.55;7.00;;;;;;;6.11;81.22;98354.41;1756112;79;25798;-86
2021/10/01 02:17:53;;;;;;;11.60;6.15;;;;;;;6.08;81.30;98356.05;1754859;79;25792;-86
2021/10/01 02:20:22;;;;;;;11.83;6.80;;;;;;;6.07;81.45;98357.55;1753342;79;26149;-90
2021/10/01 02:22:50;;;;;;;20.05;6.17;;;;;;;6.08;81.52;98358.73;1756033;79;25799;-87
2021/10/01 02:28:13;;;;;;;16.95;7.60;;;;;;;6.07;81.60;98358.39;1753247;79;25768;-87
2021/10/01 02:30:42;;;;;;;15.63;6.80;;;;;;;6.09;81.75;98363.10;1741476;81;26382;-86
2021/10/01 02:33:16;;;;;;;11.12;7.10;;;;;;;6.12;81.76;98362.78;1752747;79;25384;-86
2021/10/01 02:35:42;;;;;;;12.30;6.15;;;;;;;6.15;81.76;98367.00;1750082;81;25884;-87
2021/10/01 02:38:09;;;;;;;17.62;7.40;;;;;;;6.19;81.76;98363.47;1759495;79;27455;-88
2021/10/01 02:40:36;;;;;;;13.38;6.08;;;;;;;6.22;81.75;98367.18;1756210;79;26330;-89
2021/10/01 02:43:03;;;;;;;15.00;5.78;;;;;;;6.23;81.72;98369.70;1750067;79;25894;-89
2021/10/01 02:45:30;;;;;;;12.88;5.28;;;;;;;6.25;81.74;98373.07;1747931;79;25773;-86
2021/10/01 02:47:56;;;;;;;12.43;5.45;;;;;;;6.26;81.70;98376.59;1757853;79;25748;-86
2021/10/01 02:50:23;;;;;;;9.63;5.10;;;;;;;6.26;81.69;98375.25;1752908;79;27467;-87
2021/10/01 02:52:55;;;;;;;10.23;6.25;;;;;;;6.21;81.68;98371.70;1740718;81;26151;-85
2021/10/01 02:55:48;;;;;;;15.28;5.33;;;;;;;6.20;81.76;98374.54;1734011;80;34794;-86
2021/10/01 02:58:29;;;;;;;9.33;5.45;;;;;;;6.19;81.80;98372.86;1740802;80;25726;-87
2021/10/01 03:00:57;;;;;;;9.95;5.83;;;;;;;6.18;81.84;98372.52;1741219;80;25721;-88
2021/10/01 03:03:40;;;;;;;17.00;6.72;;;;;;;6.10;81.72;98370.14;1731936;80;28248;-87
2021/10/01 03:06:08;;;;;;;15.32;8.13;;;;;;;6.08;81.80;98373.48;1740970;81;25781;-87
2021/10/01 03:08:36;;;;;;;22.27;8.43;;;;;;;6.08;81.84;98369.46;1738359;80;25733;-87
2021/10/01 03:11:10;;;;;;;21.82;9.43;;;;;;;6.07;81.94;98369.61;1734105;80;26404;-87
2021/10/01 03:13:34;;;;;;;23.42;10.48;;;;;;;6.09;82.03;98365.78;1738259;81;25863;-86
2021/10/01 03:16:01;;;;;;;23.52;9.88;;;;;;;6.13;82.05;98364.47;1731972;80;28052;-86
2021/10/01 03:18:29;;;;;;;22.50;9.55;;;;;;;6.18;82.10;98365.31;1739888;81;26079;-89
2021/10/01 03:20:56;;;;;;;23.20;9.33;;;;;;;6.20;82.12;98366.50;1736630;80;25712;-86
2021/10/01 03:23:24;;;;;;;18.15;8.60;;;;;;;6.25;82.17;98365.03;1738681;80;26010;-86
2021/10/01 03:25:53;;;;;;;18.00;7.37;;;;;;;6.28;82.17;98367.89;1737218;80;26401;-87
2021/10/01 03:28:21;;;;;;;25.85;7.55;;;;;;;6.30;82.16;98364.52;1734670;80;27381;-86
2021/10/01 03:30:48;;;;;;;16.25;7.55;;;;;;;6.29;82.11;98358.82;1730337;80;25899;-89
2021/10/01 03:33:16;;;;;;;9.40;6.80;;;;;;;6.29;82.11;98357.48;1735421;80;25355;-87
2021/10/01 03:35:44;;;;;;;21.23;7.55;;;;;;;6.29;82.14;98357.48;1744232;80;26189;-85
2021/10/01 03:38:14;;;;;;;12.65;6.65;;;;;;;6.28;82.19;98360.66;1712935;81;25720;-91
2021/10/01 03:40:45;;;;;;;14.98;6.97;;;;;;;6.30;82.19;98355.14;1737475;81;27583;-88
2021/10/01 03:43:13;;;;;;;24.10;7.20;;;;;;;6.30;82.14;98354.64;1739441;80;25796;-86
2021/10/01 03:45:40;;;;;;;25.02;6.87;;;;;;;6.31;82.09;98355.48;1737677;80;25860;-87
2021/10/01 03:48:07;;;;;;;19.05;6.25;;;;;;;6.32;82.11;98350.46;1722918;80;26184;-86
2021/10/01 03:50:36;;;;;;;12.18;6.05;;;;;;;6.31;82.05;98351.46;1715125;81;25824;-90
2021/10/01 03:53:05;;;;;;;20.55;5.50;;;;;;;6.28;82.02;98347.78;1716299;81;28131;-89
2021/10/01 03:55:32;;;;;;;12.20;5.58;;;;;;;6.18;81.85;98353.25;1715103;82;25858;-87
2021/10/01 03:57:58;;;;;;;9.98;5.28;;;;;;;6.13;81.94;98351.06;1711268;81;25877;-90
2021/10/01 04:00:26;;;;;;;13.22;5.92;;;;;;;6.13;81.99;98353.75;1702400;82;25829;-90
2021/10/01 04:02:52;;;;;;;8.03;5.83;;;;;;;6.11;81.92;98349.05;1699126;84;25784;-88
2021/10/01 04:05:19;;;;;;;8.30;5.15;;;;;;;6.04;81.77;98348.48;1710067;81;27439;-89
2021/10/01 04:07:46;;;;;;;10.35;5.30;;;;;;;5.98;81.86;98347.30;1708545;81;25796;-87
2021/10/01 04:10:14;;;;;;;19.05;5.45;;;;;;;5.98;81.90;98347.30;1716824;81;25398;-88
2021/10/01 04:12:40;;;;;;;11.97;5.80;;;;;;;5.97;81.90;98342.94;1713626;81;26664;-87
2021/10/01 04:15:08;;;;;;;10.82;7.78;;;;;;;5.96;81.92;98341.75;1711907;81;25858;-90
2021/10/01 04:17:35;;;;;;;12.73;5.83;;;;;;;5.95;82.00;98342.25;1702111;81;27387;-86
2021/10/01 04:20:02;;;;;;;22.48;5.95;;;;;;;5.97;82.09;98338.91;1716302;81;25764;-87
2021/10/01 04:22:29;;;;;;;9.58;5.62;;;;;;;5.99;82.04;98336.08;1710746;81;25302;-89
2021/10/01 04:24:56;;;;;;;9.18;5.95;;;;;;;5.96;81.99;98338.58;1721401;81;25765;-88
2021/10/01 04:27:22;;;;;;;9.55;5.00;;;;;;;5.94;81.97;98335.70;1711925;81;25901;-87
2021/10/01 04:29:49;;;;;;;11.60;5.83;;;;;;;5.93;81.93;98332.69;1717797;81;27381;-87
2021/10/01 04:32:15;;;;;;;9.65;4.90;;;;;;;5.92;81.88;98329.16;1722136;82;26375;-86
2021/10/01 04:35:03;;;;;;;12.23;5.03;;;;;;;5.91;81.81;98332.03;1698202;82;25735;-87
2021/10/01 04:37:29;;;;;;;12.80;4.78;;;;;;;5.86;81.69;98327.60;1684927;83;25856;-89
2021/10/01 04:39:57;;;;;;;7.65;5.28;;;;;;;5.83;81.67;98332.77;1700315;82;25711;-89
2021/10/01 04:42:24;;;;;;;19.35;5.90;;;;;;;5.76;81.57;98337.09;1710812;81;27456;-87
2021/10/01 04:44:51;;;;;;;6.85;4.83;;;;;;;5.71;81.59;98331.36;1692346;82;25947;-87
2021/10/01 04:47:17;;;;;;;11.75;4.40;;;;;;;5.67;81.55;98331.36;1721847;81;25756;-90
2021/10/01 04:49:44;;;;;;;7.90;4.75;;;;;;;5.65;81.47;98336.02;1703229;83;25935;-86
2021/10/01 04:52:11;;;;;;;6.83;5.47;;;;;;;5.56;81.50;98330.25;1732003;79;25693;-86
2021/10/01 04:54:37;;;;;;;12.18;5.92;;;;;;;5.55;81.68;98332.62;1759445;79;27383;-87
2021/10/01 04:57:04;;;;;;;13.38;6.12;;;;;;;5.54;81.64;98328.26;1761946;79;26020;-91
2021/10/01 04:59:30;;;;;;;11.97;7.17;;;;;;;5.49;81.63;98326.03;1761659;79;25737;-87
2021/10/01 05:01:57;;;;;;;11.03;6.28;;;;;;;5.49;81.64;98329.21;1748601;79;26151;-86
2021/10/01 05:04:24;;;;;;;14.00;4.95;;;;;;;5.50;81.73;98333.58;1753751;79;25773;-86
2021/10/01 05:06:51;;;;;;;18.05;5.30;;;;;;;5.50;81.74;98326.88;1760133;79;27392;-87
2021/10/01 05:09:17;;;;;;;6.03;4.78;;;;;;;5.50;81.66;98328.22;1752384;79;25677;-86
2021/10/01 05:11:44;;;;;;;9.18;5.53;;;;;;;5.47;81.58;98331.20;1750238;79;25965;-86
2021/10/01 05:14:10;;;;;;;12.50;4.67;;;;;;;5.47;81.56;98328.52;1754241;79;25819;-90
2021/10/01 05:16:37;;;;;;;8.03;4.80;;;;;;;5.44;81.58;98329.67;1757429;79;25746;-92
2021/10/01 05:19:03;;;;;;;13.70;6.00;;;;;;;5.41;81.48;98332.19;1761753;79;27530;-88
2021/10/01 05:21:31;;;;;;;9.80;5.90;;;;;;;5.39;81.55;98334.17;1746603;79;25755;-89
2021/10/01 05:23:58;;;;;;;9.15;5.30;;;;;;;5.41;81.61;98333.53;1760321;79;25784;-89
2021/10/01 05:26:24;;;;;;;16.97;6.05;;;;;;;5.41;81.62;98334.86;1750000;79;25935;-89
2021/10/01 05:28:53;;;;;;;17.02;6.28;;;;;;;5.42;81.65;98333.88;1761783;81;25780;-87
2021/10/01 05:31:19;;;;;;;10.80;5.97;;;;;;;5.41;81.65;98332.69;1758689;79;27563;-91
2021/10/01 05:33:46;;;;;;;11.28;7.20;;;;;;;5.43;81.74;98333.38;1751481;79;25752;-91
2021/10/01 05:36:13;;;;;;;22.58;7.60;;;;;;;5.47;81.78;98332.54;1751643;79;25724;-91
2021/10/01 05:38:39;;;;;;;16.67;6.92;;;;;;;5.50;81.80;98330.89;1757251;79;26299;-91
2021/10/01 05:41:06;;;;;;;16.27;8.08;;;;;;;5.49;81.72;98333.23;1754397;79;25729;-92
2021/10/01 05:43:32;;;;;;;16.87;7.60;;;;;;;5.50;81.68;98334.91;1744794;79;27415;-89
2021/10/01 05:45:59;;;;;;;25.85;7.15;;;;;;;5.50;81.68;98337.59;1746234;79;26370;-86
2021/10/01 05:48:30;;;;;;;12.98;7.78;;;;;;;5.50;81.67;98339.77;1760586;79;25886;-91
2021/10/01 05:50:57;;;;;;;15.93;7.80;;;;;;;5.54;81.76;98342.98;1763638;81;25686;-91
2021/10/01 05:53:38;;;;;;;16.05;8.43;;;;;;;5.57;81.82;98342.65;1738786;79;25843;-91
2021/10/01 05:55:52;;;;;;;15.28;8.08;;;;;;;5.60;81.88;98339.66;1749537;79;27624;-91
2021/10/01 05:58:18;;;;;;;16.90;8.53;;;;;;;5.64;81.91;98345.05;1745906;79;25755;-87
2021/10/01 06:00:45;;;;;;;21.70;9.00;;;;;;;5.67;81.95;98340.73;1760326;79;25847;-91
2021/10/01 06:03:12;;;;;;;24.92;9.48;;;;;;;5.70;81.95;98344.41;1735650;81;25871;-87
2021/10/01 06:05:38;;;;;;;16.12;9.68;;;;;;;5.74;82.04;98343.11;1762514;79;25839;-90
2021/10/01 06:08:05;;;;;;;17.02;9.23;;;;;;;5.77;82.12;98338.78;1742837;79;27583;-88
2021/10/01 06:10:32;;;;;;;22.45;10.60;;;;;;;5.77;82.10;98337.44;1757006;79;25787;-90
2021/10/01 06:12:58;;;;;;;18.82;11.08;;;;;;;5.79;82.07;98339.47;1751915;81;25283;-88
2021/10/01 06:15:25;;;;;;;38.60;12.37;;;;;;;5.77;82.11;98344.14;1745763;79;26119;-87
2021/10/01 06:17:51;;;;;;;22.35;11.85;;;;;;;5.77;82.09;98342.80;1736519;79;26313;-90
2021/10/01 06:20:18;;;;;;;19.52;10.55;;;;;;;5.80;82.18;98338.44;1751711;79;27360;-91
2021/10/01 06:22:45;;;;;;;22.82;11.95;;;;;;;5.86;82.28;98339.66;1751501;79;25685;-93
2021/10/01 06:25:11;;;;;;;22.35;11.78;;;;;;;5.87;82.29;98339.50;1757830;79;25837;-91
2021/10/01 06:27:38;;;;;;;20.30;10.43;;;;;;;5.90;82.21;98340.56;1742066;79;25799;-91
2021/10/01 06:30:06;;;;;;;14.95;9.48;;;;;;;5.94;82.18;98339.73;1758438;79;25769;-91
2021/10/01 06:32:35;;;;;;;17.42;9.93;;;;;;;5.95;82.12;98344.93;1760009;79;27515;-90
2021/10/01 06:35:03;;;;;;;9.83;7.45;;;;;;;5.98;82.15;98347.80;1751402;79;25839;-90
2021/10/01 06:37:30;;;;;;;8.43;6.47;;;;;;;5.99;82.26;98344.96;1759746;79;26426;-90
2021/10/01 06:39:57;;;;;;;9.25;6.17;;;;;;;6.02;82.26;98347.33;1763560;79;25342;-87
2021/10/01 06:42:24;;;;;;;10.65;6.83;;;;;;;6.06;82.24;98347.33;1755592;79;25848;-88
2021/10/01 06:44:54;;;;;;;10.70;7.03;;;;;;;6.14;82.27;98349.23;1747830;79;27414;-89
2021/10/01 06:50:09;;;;;;;9.38;6.65;;;;;;;6.24;82.08;98349.09;1727573;79;25847;-88
2021/10/01 08:20:15;;;;;;;13.40;9.65;;;;;;;8.74;81.98;98281.33;1674238;84;27437;-86
2021/10/01 08:22:41;;;;;;;13.20;9.18;;;;;;;9.02;81.84;98279.78;1696479;82;25779;-86
2021/10/01 08:25:09;;;;;;;13.55;10.15;;;;;;;9.27;81.64;98271.50;1715222;80;25838;-85
2021/10/01 08:27:36;;;;;;;13.03;9.53;;;;;;;9.57;81.28;98271.87;1728280;80;26096;-86
2021/10/01 08:30:06;;;;;;;12.15;9.40;;;;;;;9.86;80.95;98266.18;1738499;80;25672;-86
2021/10/01 08:32:35;;;;;;;10.15;8.23;;;;;;;10.21;80.69;98260.05;1703149;84;27307;-85
2021/10/01 08:35:02;;;;;;;10.80;8.43;;;;;;;10.57;80.38;98263.28;1704838;82;25786;-85
2021/10/01 08:37:29;;;;;;;14.50;9.08;;;;;;;10.85;79.90;98258.82;1715824;83;25875;-86
2021/10/01 08:39:55;;;;;;;11.55;8.03;;;;;;;11.13;79.77;98251.59;1752333;80;25676;-86
2021/10/01 08:42:23;;;;;;;10.20;7.83;;;;;;;11.42;79.30;98249.76;1725826;83;25685;-86
2021/10/01 08:44:50;;;;;;;9.93;7.05;;;;;;;11.68;79.05;98247.25;1752461;81;27499;-86
2021/10/01 08:47:18;;;;;;;8.40;7.08;;;;;;;11.92;78.53;98243.78;1725599;83;25813;-87
2021/10/01 08:49:50;;;;;;;7.92;6.95;;;;;;;12.24;78.49;98247.17;1747855;80;25802;-87
2021/10/01 08:52:18;;;;;;;8.18;6.53;;;;;;;12.55;78.17;98245.33;1704986;82;26171;-87
2021/10/01 08:54:45;;;;;;;9.23;7.00;;;;;;;12.82;77.75;98247.05;1699056;82;25377;-86
2021/10/01 08:57:12;;;;;;;8.00;7.12;;;;;;;13.03;77.34;98236.58;1700185;82;27576;-86
2021/10/01 08:59:38;;;;;;;9.18;7.35;;;;;;;13.16;76.72;98227.10;1684469;82;25755;-88
2021/10/01 09:02:05;;;;;;;7.20;6.50;;;;;;;13.33;76.88;98223.47;1701307;82;26340;-87
2021/10/01 09:04:32;;;;;;;12.15;6.90;;;;;;;13.49;76.76;98224.93;1704597;82;25620;-88
2021/10/01 09:06:59;;;;;;;10.00;7.00;;;;;;;13.69;76.55;98228.44;1684194;84;25795;-88
2021/10/01 09:09:48;;;;;;;10.82;7.05;;;;;;;13.85;76.28;98219.87;1702991;82;27037;-87
2021/10/01 09:12:16;;;;;;;9.70;6.37;;;;;;;14.07;76.08;98219.06;1701834;82;25725;-87
2021/10/01 09:14:46;;;;;;;8.55;6.87;;;;;;;14.19;75.79;98210.56;1704919;84;25843;-87
2021/10/01 09:17:24;;;;;;;6.95;6.25;;;;;;;14.43;75.61;98214.47;1703357;83;25828;-87
2021/10/01 09:19:52;;;;;;;6.80;5.42;;;;;;;14.62;75.28;98209.97;1702485;83;25732;-87
2021/10/01 09:22:35;;;;;;;4.53;4.08;;;;;;;14.84;75.08;98205.89;1681132;82;27391;-87
2021/10/01 09:25:22;;;;;;;7.35;4.60;;;;;;;15.07;74.39;98199.87;1699767;82;25697;-87
2021/10/01 09:27:53;;;;;;;5.70;4.37;;;;;;;15.21;73.80;98194.64;1705180;83;25910;-87
2021/10/01 09:30:22;;;;;;;4.25;3.80;;;;;;;15.43;73.46;98199.16;1677407;83;25801;-87
2021/10/01 09:33:11;;;;;;;9.38;4.55;;;;;;;15.59;73.12;98194.52;1691080;84;26378;-87
2021/10/01 09:35:41;;;;;;;4.80;4.05;;;;;;;15.74;73.01;98195.52;1686593;82;27395;-87
2021/10/01 09:38:14;;;;;;;5.22;4.03;;;;;;;15.84;72.07;98189.02;1706942;84;25656;-86
2021/10/01 09:40:43;;;;;;;5.85;3.30;;;;;;;15.94;72.03;98193.41;1707040;84;25756;-87
2021/10/01 09:43:31;;;;;;;4.35;3.22;;;;;;;16.07;71.45;98182.37;1706090;82;25760;-87
2021/10/01 09:46:15;;;;;;;3.98;3.42;;;;;;;16.20;71.40;98180.85;1702924;83;25729;-87
2021/10/01 09:48:41;;;;;;;2.98;2.17;;;;;;;16.51;71.56;98174.92;1701183;82;28294;-87
2021/10/01 09:51:14;;;;;;;3.30;2.50;;;;;;;16.73;70.63;98179.35;1702841;83;26335;-87
2021/10/01 09:53:48;;;;;;;1.77;1.50;;;;;;;16.87;70.38;98170.75;1715744;81;26096;-86
2021/10/01 09:56:27;;;;;;;2.83;2.00;;;;;;;17.11;70.01;98170.80;1763576;79;26166;-87
2021/10/01 09:59:22;;;;;;;2.65;1.45;;;;;;;17.32;69.77;98162.58;1766661;79;25767;-87
2021/10/01 10:02:05;;;;;;;3.20;1.40;;;;;;;17.39;69.76;98159.22;1758053;79;28309;-86
2021/10/01 10:04:39;;;;;;;1.62;1.42;;;;;;;17.48;69.47;98157.80;1766733;79;25830;-88
2021/10/01 10:07:22;;;;;;;1.67;1.30;;;;;;;17.67;69.21;98159.88;1765310;79;25838;-87
2021/10/01 10:09:56;;;;;;;1.32;1.07;;;;;;;17.81;68.29;98155.84;1754668;79;25819;-87
2021/10/01 10:12:37;;;;;;;1.90;1.17;;;;;;;17.86;67.92;98153.23;1745765;79;25673;-87
2021/10/01 10:15:11;;;;;;;1.92;1.42;;;;;;;17.93;68.43;98154.75;1749087;79;27544;-87
2021/10/01 10:17:47;;;;;;;3.25;1.30;;;;;;;17.98;67.62;98150.78;1765569;81;26336;-85
2021/10/01 10:20:16;;;;;;;1.55;1.10;;;;;;;18.05;67.64;98149.27;1761969;79;25738;-86
2021/10/01 10:22:43;;;;;;;3.25;1.47;;;;;;;18.17;66.77;98150.06;1762687;79;25687;-87
2021/10/01 10:25:09;;;;;;;2.90;1.60;;;;;;;17.93;65.61;98149.29;1766568;79;25811;-87
2021/10/01 10:27:36;;;;;;;1.75;1.30;;;;;;;17.83;66.11;98146.88;1765880;79;27424;-86
2021/10/01 10:30:07;;;;;;;3.67;1.05;;;;;;;17.85;66.70;98140.64;1749314;79;25938;-86
2021/10/01 10:32:34;;;;;;;1.50;0.90;;;;;;;18.02;66.54;98141.55;1736383;81;25768;-85
2021/10/01 10:35:05;;;;;;;1.22;1.10;;;;;;;18.07;65.77;98140.83;1737239;79;26208;-85
2021/10/01 10:37:47;;;;;;;0.90;0.90;;;;;;;18.08;65.77;98134.30;1744565;79;25773;-88
2021/10/01 10:40:17;;;;;;;0.95;0.75;;;;;;;18.14;65.27;98135.52;1761387;81;27400;-88
2021/10/01 10:42:54;;;;;;;0.88;0.72;;;;;;;18.05;64.72;98132.05;1765315;79;25808;-86
2021/10/01 10:45:27;;;;;;;1.17;0.68;;;;;;;17.87;64.46;98124.86;1750149;81;25664;-86
2021/10/01 10:48:10;;;;;;;2.52;0.90;;;;;;;17.85;64.84;98118.80;1736293;79;25733;-87
2021/10/01 10:50:50;;;;;;;;;;;;;;;18.00;64.92;98120.47;1759398;79;25741;-87
2021/10/01 10:53:22;;;;;;;1.35;0.93;;;;;;;18.12;64.23;98119.89;1754383;79;27365;-88
2021/10/01 10:55:53;;;;;;;1.15;1.05;;;;;;;18.07;64.67;98115.71;1707299;82;25809;-88
2021/10/01 10:58:32;;;;;;;1.30;0.70;;;;;;;18.10;64.66;98114.41;1692341;82;26200;-88
2021/10/01 11:01:23;;;;;;;1.77;0.82;;;;;;;18.07;64.31;98111.61;1672046;84;25759;-87
2021/10/01 11:04:09;;;;;;;1.02;0.78;;;;;;;18.12;64.95;98111.70;1685813;83;25714;-87
2021/10/01 11:06:38;;;;;;;1.00;0.90;;;;;;;18.25;64.47;98108.69;1663328;84;27508;-86
2021/10/01 11:09:24;;;;;;;1.10;1.00;;;;;;;18.38;63.88;98102.64;1660769;85;25822;-87
2021/10/01 11:11:54;;;;;;;0.70;0.70;;;;;;;18.43;63.59;98101.38;1669950;84;25849;-86
2021/10/01 11:14:22;;;;;;;1.15;0.90;;;;;;;18.55;63.66;98108.45;1684358;84;25842;-87
2021/10/01 11:17:02;;;;;;;1.22;1.02;;;;;;;18.66;63.29;98101.30;1675868;84;25957;-87
2021/10/01 11:19:45;;;;;;;1.10;1.05;;;;;;;18.68;63.46;98101.88;1690602;84;27365;-88
2021/10/01 11:22:28;;;;;;;1.25;1.00;;;;;;;18.70;62.50;98097.00;1672304;84;25737;-87
2021/10/01 11:25:11;;;;;;;1.27;0.90;;;;;;;18.74;62.13;98092.67;1690519;84;25906;-85
2021/10/01 11:27:58;;;;;;;0.98;0.95;;;;;;;18.81;62.31;98088.43;1690112;84;26274;-86
2021/10/01 11:30:28;;;;;;;2.75;1.00;;;;;;;18.99;61.91;98093.11;1681405;84;25827;-86
2021/10/01 11:32:57;;;;;;;1.17;0.98;;;;;;;19.12;61.76;98088.37;1679065;84;27463;-86
2021/10/01 11:35:24;;;;;;;1.55;0.95;;;;;;;19.22;61.54;98088.53;1689000;84;26125;-86
2021/10/01 11:37:51;;;;;;;0.85;0.82;;;;;;;19.28;61.92;98082.08;1675185;84;26584;-87
2021/10/01 11:40:28;;;;;;;1.22;1.12;;;;;;;19.34;61.29;98079.69;1685370;82;26239;-88
2021/10/01 11:42:59;;;;;;;0.85;0.80;;;;;;;19.28;61.14;98084.81;1719114;81;25777;-87
2021/10/01 11:45:35;;;;;;;1.05;0.98;;;;;;;19.19;60.60;98082.22;1725151;81;28205;-87
2021/10/01 11:48:08;;;;;;;1.50;0.95;;;;;;;19.08;59.74;98080.66;1722770;81;25809;-87
2021/10/01 11:50:48;;;;;;;1.17;1.00;;;;;;;18.88;59.65;98080.87;1717969;81;25502;-88
2021/10/01 11:53:25;;;;;;;1.10;1.00;;;;;;;18.69;59.54;98084.40;1708238;82;25722;-88
2021/10/01 11:55:58;;;;;;;1.25;0.95;;;;;;;18.51;60.09;98075.83;1727934;81;25744;-89
2021/10/01 11:58:28;;;;;;;1.72;0.88;;;;;;;18.38;60.14;98074.77;1730341;81;28312;-88
2021/10/01 12:00:58;;;;;;;1.62;0.88;;;;;;;18.15;59.92;98077.06;1733015;82;25729;-88
2021/10/01 12:03:24;;;;;;;2.02;1.30;;;;;;;18.01;60.37;98067.49;1727006;81;25787;-88
2021/10/01 12:05:55;;;;;;;2.15;1.30;;;;;;;17.97;60.51;98070.44;1737143;80;26499;-87
2021/10/01 12:08:24;;;;;;;1.22;1.10;;;;;;;17.89;60.76;98073.53;1736179;81;25773;-92
2021/10/01 12:10:54;;;;;;;1.95;1.05;;;;;;;17.78;60.57;98066.20;1722320;82;28311;-88
2021/10/01 12:13:28;;;;;;;1.55;1.22;;;;;;;17.66;60.27;98064.03;1728371;81;25796;-88
2021/10/01 12:16:02;;;;;;;1.35;1.25;;;;;;;17.50;60.48;98056.87;1754368;80;25279;-88
2021/10/01 12:18:37;;;;;;;2.37;1.27;;;;;;;17.41;60.68;98061.01;1711733;82;25742;-89
2021/10/01 12:21:11;;;;;;;2.17;1.20;;;;;;;17.36;60.84;98055.45;1707578;82;25713;-87
2021/10/01 12:23:42;;;;;;;1.35;1.25;;;;;;;17.28;61.27;98052.54;1707754;82;26795;-88
2021/10/01 12:26:28;;;;;;;2.10;1.20;;;;;;;17.26;61.20;98051.14;1707465;82;25736;-87
2021/10/01 12:29:03;;;;;;;1.02;0.93;;;;;;;17.18;61.10;98050.12;1731215;81;25990;-88
2021/10/01 12:31:38;;;;;;;2.58;1.17;;;;;;;17.08;61.48;98047.98;1718627;82;25758;-87
2021/10/01 12:34:08;;;;;;;2.80;1.15;;;;;;;17.02;61.27;98044.03;1736537;81;25243;-88
2021/10/01 12:36:37;;;;;;;2.17;1.32;;;;;;;16.97;61.44;98046.09;1713067;80;28188;-87
2021/10/01 12:39:04;;;;;;;2.58;1.40;;;;;;;16.96;61.78;98049.05;1727268;81;25452;-88
2021/10/01 12:41:31;;;;;;;4.05;2.40;;;;;;;16.93;61.79;98034.81;1736275;81;25739;-88
2021/10/01 12:44:02;;;;;;;4.85;2.42;;;;;;;16.92;62.13;98038.61;1707091;82;25743;-86
2021/10/01 12:46:46;;;;;;;2.02;1.82;;;;;;;16.91;62.12;98038.31;1702590;84;25792;-86
2021/10/01 12:49:29;;;;;;;3.17;1.60;;;;;;;16.92;62.14;98037.24;1720665;81;27398;-88
2021/10/01 12:52:12;;;;;;;1.98;1.62;;;;;;;16.95;61.73;98036.48;1735859;81;25873;-88
2021/10/01 12:54:52;;;;;;;4.60;1.92;;;;;;;16.95;61.47;98027.77;1728171;81;26314;-85
2021/10/01 12:57:43;;;;;;;4.45;1.70;;;;;;;16.95;61.20;98023.67;1728802;81;25697;-86
2021/10/01 13:00:16;;;;;;;3.02;2.25;;;;;;;16.93;61.33;98022.55;1730718;81;25764;-86
2021/10/01 13:03:05;;;;;;;2.08;1.70;;;;;;;16.87;61.77;98018.59;1729267;81;27335;-86
2021/10/01 13:05:42;;;;;;;4.15;1.90;;;;;;;16.82;61.37;98010.27;1718074;81;25795;-85
2021/10/01 13:08:13;;;;;;;4.17;2.12;;;;;;;16.72;61.95;98012.76;1711461;81;25736;-88
2021/10/01 13:10:52;;;;;;;5.00;2.40;;;;;;;16.67;61.99;98012.63;1715957;81;25709;-87
2021/10/01 13:13:22;;;;;;;4.67;2.53;;;;;;;16.62;62.28;98007.03;1707474;81;25777;-87
2021/10/01 13:15:55;;;;;;;4.10;2.65;;;;;;;16.61;62.46;98010.83;1720923;81;27384;-86
2021/10/01 13:18:30;;;;;;;5.00;3.25;;;;;;;16.59;62.73;97998.79;1727455;81;26404;-88
2021/10/01 13:21:22;;;;;;;8.80;4.75;;;;;;;16.60;62.76;97999.09;1714119;81;25866;-86
2021/10/01 13:24:00;;;;;;;7.03;4.47;;;;;;;16.66;63.10;97995.47;1721792;81;25855;-86
2021/10/01 13:26:34;;;;;;;8.30;5.33;;;;;;;16.82;63.46;97992.02;1725329;82;26499;-91